Time,TemperatureF,DewpointF,PressureIn,WindDirection,WindDirectionDegrees,WindSpeedMPH,WindSpeedGustMPH,Humidity,HourlyPrecipIn,Conditions,Clouds,dailyrainin,SoftwareType,DateUTC
2013-12-23 00:22:00,24.0,21.0,-100.00,West,275,7.0,14.0,90,-99.99,,,-99.99,,2013-12-23 06:22:00,
2013-12-23 00:52:00,23.0,21.0,-100.00,WNW,290,5.0,10.0,90,-99.99,,,-99.99,,2013-12-23 06:52:00,
2013-12-23 01:22:00,23.0,20.0,-100.00,West,260,4.0,9.0,90,-99.99,,,-99.99,,2013-12-23 07:22:00,
2013-12-23 01:52:00,22.0,20.0,-100.00,WNW,295,4.0,13.0,89,-99.99,,,-99.99,,2013-12-23 07:52:00,
2013-12-23 02:22:00,22.0,19.0,-100.00,West,280,7.0,14.0,89,-99.99,,,-99.99,,2013-12-23 08:22:00,
2013-12-23 02:53:00,21.0,18.0,-100.00,West,280,6.0,17.0,88,-99.99,,,-99.99,,2013-12-23 08:53:00,
2013-12-23 03:21:00,21.0,18.0,-100.00,West,280,4.0,10.0,88,-99.99,,,-99.99,,2013-12-23 09:21:00,
2013-12-23 03:54:00,19.0,16.0,-100.00,West,275,5.0,13.0,88,-99.99,,,-99.99,,2013-12-23 09:54:00,
2013-12-23 04:23:00,18.0,15.0,-100.00,West,265,7.0,13.0,88,-99.99,,,-99.99,,2013-12-23 10:23:00,
2013-12-23 04:53:00,17.0,14.0,-100.00,WNW,300,6.0,15.0,88,-99.99,,,-99.99,,2013-12-23 10:53:00,
2013-12-23 05:22:00,16.0,14.0,-100.00,West,280,6.0,13.0,89,-99.99,,,-99.99,,2013-12-23 11:22:00,
2013-12-23 05:53:00,15.0,13.0,-100.00,West,270,7.0,16.0,89,-99.99,,,-99.99,,2013-12-23 11:53:00,
2013-12-23 06:22:00,14.0,12.0,-100.00,WSW,240,5.0,12.0,89,-99.99,,,-99.99,,2013-12-23 12:22:00,
2013-12-23 06:52:00,14.0,12.0,-100.00,SSW,210,4.0,8.0,89,-99.99,,,-99.99,,2013-12-23 12:52:00,
2013-12-23 07:22:00,12.0,9.0,-100.00,WSW,255,6.0,15.0,88,-99.99,,,-99.99,,2013-12-23 13:22:00,
2013-12-23 07:52:00,8.0,5.0,-100.00,West,260,6.0,14.0,87,-99.99,,,-99.99,,2013-12-23 13:52:00,
2013-12-23 08:22:00,5.0,2.0,-100.00,SW,230,6.0,14.0,85,-99.99,,,-99.99,,2013-12-23 14:22:00,
2013-12-23 08:52:00,4.0,1.0,-100.00,WNW,295,6.0,14.0,84,-99.99,,,-99.99,,2013-12-23 14:52:00,
2013-12-23 09:22:00,4.0,0.0,-100.00,WSW,240,5.0,11.0,83,-99.99,,,-99.99,,2013-12-23 15:22:00,
2013-12-23 09:54:00,5.0,0.0,-100.00,WNW,295,6.0,13.0,81,-99.99,,,-99.99,,2013-12-23 15:54:00,
2013-12-23 10:24:00,4.0,-1.0,-100.00,West,270,7.0,13.0,79,-99.99,,,-99.99,,2013-12-23 16:24:00,
2013-12-23 10:53:00,5.0,-1.0,-100.00,West,280,6.0,16.0,78,-99.99,,,-99.99,,2013-12-23 16:53:00,
2013-12-23 11:25:00,5.0,-1.0,-100.00,SW,235,6.0,19.0,78,-99.99,,,-99.99,,2013-12-23 17:25:00,
2013-12-23 11:52:00,5.0,-1.0,-100.00,WSW,255,7.0,14.0,77,-99.99,,,-99.99,,2013-12-23 17:52:00,
2013-12-23 12:23:00,6.0,0.0,-100.00,West,265,6.0,14.0,74,-99.99,,,-99.99,,2013-12-23 18:23:00,
2013-12-23 12:52:00,5.0,-2.0,-100.00,West,260,9.0,15.0,71,-99.99,,,-99.99,,2013-12-23 18:52:00,
2013-12-23 13:22:00,6.0,-2.0,-100.00,WSW,255,7.0,15.0,68,-99.99,,,-99.99,,2013-12-23 19:22:00,
2013-12-23 13:52:00,6.0,-3.0,-100.00,WSW,250,9.0,15.0,65,-99.99,,,-99.99,,2013-12-23 19:52:00,
2013-12-23 14:22:00,7.0,-2.0,-100.00,West,265,5.0,19.0,64,-99.99,,,-99.99,,2013-12-23 20:22:00,
2013-12-23 14:52:00,6.0,-4.0,-100.00,WSW,245,7.0,15.0,63,-99.99,,,-99.99,,2013-12-23 20:52:00,
2013-12-23 15:22:00,6.0,-4.0,-100.00,WSW,240,8.0,16.0,64,-99.99,,,-99.99,,2013-12-23 21:22:00,
2013-12-23 15:54:00,5.0,-5.0,-100.00,WSW,250,6.0,14.0,63,-99.99,,,-99.99,,2013-12-23 21:54:00,
2013-12-23 16:23:00,4.0,-5.0,-100.00,West,265,6.0,12.0,64,-99.99,,,-99.99,,2013-12-23 22:23:00,
2013-12-23 16:53:00,2.0,-6.0,-100.00,NW,315,5.0,14.0,67,-99.99,,,-99.99,,2013-12-23 22:53:00,
2013-12-23 17:22:00,0.0,-7.0,-100.00,West,260,6.0,14.0,70,-99.99,,,-99.99,,2013-12-23 23:22:00,
2013-12-23 17:53:00,0.0,-7.0,-100.00,WSW,245,6.0,12.0,72,-99.99,,,-99.99,,2013-12-23 23:53:00,
2013-12-23 18:22:00,-1.0,-7.0,-100.00,WNW,300,4.0,10.0,74,-99.99,,,-99.99,,2013-12-24 00:22:00,
2013-12-23 18:52:00,-1.0,-8.0,-100.00,WNW,300,6.0,11.0,74,-99.99,,,-99.99,,2013-12-24 00:52:00,
2013-12-23 19:22:00,-2.0,-8.0,-100.00,WNW,295,5.0,14.0,74,-99.99,,,-99.99,,2013-12-24 01:22:00,
2013-12-23 19:52:00,-2.0,-8.0,-100.00,WNW,290,6.0,11.0,74,-99.99,,,-99.99,,2013-12-24 01:52:00,
2013-12-23 20:22:00,-3.0,-9.0,-100.00,West,270,4.0,11.0,74,-99.99,,,-99.99,,2013-12-24 02:22:00,
2013-12-23 20:52:00,-3.0,-9.0,-100.00,West,280,3.0,12.0,74,-99.99,,,-99.99,,2013-12-24 02:52:00,
2013-12-23 21:22:00,-4.0,-10.0,-100.00,West,280,3.0,9.0,75,-99.99,,,-99.99,,2013-12-24 03:22:00,
2013-12-23 21:53:00,-4.0,-10.0,-100.00,West,265,4.0,10.0,75,-99.99,,,-99.99,,2013-12-24 03:53:00,
2013-12-23 22:23:00,-5.0,-10.0,-100.00,WNW,285,4.0,11.0,76,-99.99,,,-99.99,,2013-12-24 04:23:00,
2013-12-23 22:53:00,-5.0,-11.0,-100.00,West,270,6.0,9.0,76,-99.99,,,-99.99,,2013-12-24 04:53:00,
2013-12-23 23:22:00,-6.0,-11.0,-100.00,West,275,4.0,8.0,76,-99.99,,,-99.99,,2013-12-24 05:22:00,
2013-12-23 23:52:00,-6.0,-11.0,-100.00,WNW,300,3.0,8.0,77,-99.99,,,-99.99,,2013-12-24 05:52:00,